Details From LJLJ - LJUBLJANA
To LDSP - SPLIT
Flight Number -
Tags generated
Created
Modified
Stats Distance 179 nm / 332 km
Max Altitude 21,100 ft / 6,431 m
Waypoints 3
Social Downloads 3
Likes 0
Share VATSIM

Download

Looking for another format? Having issues loading an existing format? Contact us
Advertisement - Login to hide

Notes

Basic altitude profile: - Ascent Rate: 2500ft/min - Ascent Speed: 250kts - Cruise Altitude: 360ft - Cruise Speed: 420kts - Descent Rate: 1500ft/min - Descent Speed: 250kts Options: - Use NATs: no - Use PACOTS: yes - Use low airways: no - Use high airways: yes

Route

LJLJ GISER LDSP

ID Type Via Altitude Latitude Longitude Leg Dist Tot Dist Heading (true) Name
O LJLJ APT - 0 ft / 0 m 46.22368˚ 14.45761˚ - 0 nm - LJUBLJANA
GISER FIX - 21,100 ft / 6,431 m 45.06167˚ 15.17389˚ 75 nm 75 nm 156° / 157° -
O LDSP APT - 0 ft / 0 m 43.53903˚ 16.29811˚ 103 nm 179 nm 152° / 153° SPLIT

Altitude Profile

Advertisement - Login to hide

Weather


0- 5 10 15 20 25 30 35+ Temperature / ° C

Clouds and Precipitation
Forecast for 2017-12-13 12:00 UTC. Updated 25 minutes ago

Ground ~20,000 ft ~40,000 ft Winds

LJLJ

Details ICAO LJLJ (LJU)
Name LJUBLJANA
Region Slovenia
Timezone Europe/Ljubljana (UTC+1.0)
Stats Elevation 1,273 ft / 388 m (AMSL)
Location 46.223685° 14.457608°
Runways 1
Magnetic Variation 3.661° E

METAR

LJLJ 130930Z VRB01KT 3000 -SN BR BKN005 OVC015 00/00 Q1020 RESN R30/29//95 TEMPO 1200 SN VV005

Decode

TAF

TAF TAF LJLJ 130800Z 1309/1409 12005KT 3500 -SN BR BKN010 OVC020 TEMPO 1309/1316 10010KT 1500 SN OVC005 BECMG 1316/1319 30003KT 7000 NSW OVC035 TEMPO 1318/1403 3500 -SNRA BR SCT010 OVC020

Decode

Departure Runways

ID Width Length Bearing (true) Bearing (mag) Surface Threshold Offset Overrun Length
13 148 ft / 45 m 10,811 ft / 3,295 m 126.47° 122.81° Asphalt 0 ft / 0 m 0 ft / 0 m
31 148 ft / 45 m 10,811 ft / 3,295 m 306.49° 302.83° Asphalt 0 ft / 0 m 0 ft / 0 m

LDSP

Details ICAO LDSP (SPU)
Name SPLIT
Region Croatia
Timezone Europe/Zagreb (UTC+1.0)
Stats Elevation 79 ft / 24 m (AMSL)
Location 43.539026° 16.298112°
Runways 1
Magnetic Variation 3.837° E

METAR

LDSP 130930Z 22002KT 9999 -RA FEW006 OVC070 11/09 Q1018 NOSIG

Decode

TAF

TAF LDSP 130525Z 1306/1406 34007KT 9999 BKN035 TX13/1313Z TN06/1401Z TEMPO 1306/1312 RA

Decode

Destination Runways

ID Width Length Bearing (true) Bearing (mag) Surface Threshold Offset Overrun Length
05 148 ft / 45 m 8,357 ft / 2,547 m 52.48° 48.64° Asphalt 0 ft / 0 m 76 ft / 23 m
23 148 ft / 45 m 8,357 ft / 2,547 m 232.50° 228.66° Asphalt 525 ft / 160 m 820 ft / 250 m

Approach Navaids

Runway Type Ident Frequency Range Bearing (true) Bearing (mag) Slope Elevation
05 Localiser IST 110.50 MHz 25 nm / 46 km 52.57° 48.73° - 69 ft / 21 m (AMSL)
05 Glidescope IST 110.50 MHz 25 nm / 46 km 52.57° 48.73° 3.00° 52 ft / 16 m (AMSL)

Popular Alternatives